createdAt,value
2018-09-06T00:02:05.986Z,30.23
2018-09-06T00:04:34.671Z,26.50
2018-09-06T00:07:03.384Z,25.37
2018-09-06T00:09:32.078Z,26.87
2018-09-06T00:12:00.855Z,32.83
2018-09-06T00:14:29.585Z,25.13
2018-09-06T00:16:58.318Z,31.40
2018-09-06T00:19:27.060Z,29.27
2018-09-06T00:21:55.728Z,29.90
2018-09-06T00:24:24.457Z,31.80
2018-09-06T00:26:53.190Z,34.70
2018-09-06T00:29:21.957Z,31.27
2018-09-06T00:31:50.646Z,28.33
2018-09-06T00:34:19.408Z,34.37
2018-09-06T00:36:48.096Z,33.80
2018-09-06T00:39:16.855Z,27.60
2018-09-06T00:41:45.529Z,33.93
2018-09-06T00:44:14.289Z,33.33
2018-09-06T00:46:43.018Z,32.10
2018-09-06T00:49:11.748Z,32.67
2018-09-06T00:51:40.465Z,29.70
2018-09-06T00:54:09.165Z,29.03
2018-09-06T00:56:37.929Z,34.10
2018-09-06T00:59:06.640Z,33.60
2018-09-06T01:01:35.408Z,30.40
2018-09-06T01:04:04.160Z,34.13
2018-09-06T01:06:32.893Z,35.03
2018-09-06T01:09:01.558Z,32.13
2018-09-06T01:11:34.197Z,35.63
2018-09-06T01:14:06.526Z,34.70
2018-09-06T01:16:37.092Z,34.60
2018-09-06T01:19:08.089Z,32.70
2018-09-06T01:21:40.079Z,28.83
2018-09-06T01:24:13.879Z,32.23
2018-09-06T01:26:46.951Z,42.70
2018-09-06T01:29:21.374Z,32.17
2018-09-06T01:31:56.665Z,33.93
2018-09-06T01:34:31.018Z,33.33
2018-09-06T01:37:09.674Z,28.90
2018-09-06T01:39:42.975Z,34.40
2018-09-06T01:42:17.240Z,31.57
2018-09-06T01:44:50.138Z,30.50
2018-09-06T01:47:27.294Z,27.90
2018-09-06T01:50:00.055Z,32.00
2018-09-06T01:52:33.191Z,31.53
2018-09-06T01:55:06.260Z,32.00
2018-09-06T01:57:40.330Z,30.20
2018-09-06T02:00:15.491Z,35.80
2018-09-06T02:02:49.797Z,30.47
2018-09-06T02:05:27.033Z,33.87
2018-09-06T02:08:04.683Z,30.00
2018-09-06T02:10:37.907Z,30.50
2018-09-06T02:13:12.446Z,31.37
2018-09-06T02:15:49.621Z,30.87
2018-09-06T02:18:25.151Z,29.37
2018-09-06T02:21:00.033Z,29.37
2018-09-06T02:23:36.270Z,29.17
2018-09-06T02:26:10.227Z,34.53
2018-09-06T02:28:44.395Z,29.47
2018-09-06T02:31:17.404Z,31.97
2018-09-06T02:33:51.326Z,28.93
2018-09-06T02:36:25.401Z,32.23
2018-09-06T02:38:59.250Z,35.20
2018-09-06T02:41:43.721Z,43.57
2018-09-06T02:44:15.293Z,33.03
2018-09-06T02:46:48.685Z,30.20
2018-09-06T02:49:24.930Z,34.50
2018-09-06T02:51:57.157Z,30.83
2018-09-06T02:54:29.744Z,29.93
2018-09-06T02:57:02.603Z,33.33
2018-09-06T02:59:36.677Z,34.00
2018-09-06T03:02:09.164Z,27.97
2018-09-06T03:04:41.875Z,33.33
2018-09-06T03:07:15.847Z,37.30
2018-09-06T03:09:48.118Z,33.60
2018-09-06T03:12:17.972Z,35.23
2018-09-06T03:14:46.762Z,31.87
2018-09-06T03:17:15.510Z,35.60
2018-09-06T03:19:44.223Z,30.77
2018-09-06T03:22:12.872Z,38.40
2018-09-06T03:24:41.576Z,33.70
2018-09-06T03:27:10.313Z,34.20
2018-09-06T03:29:38.961Z,32.93
2018-09-06T03:32:07.673Z,32.00
2018-09-06T03:34:36.514Z,31.68
2018-09-06T03:37:05.193Z,37.90
2018-09-06T03:39:33.909Z,41.33
2018-09-06T03:42:02.706Z,37.30
2018-09-06T03:44:31.419Z,39.50
2018-09-06T03:47:00.204Z,33.30
2018-09-06T03:49:28.954Z,40.65
2018-09-06T03:51:57.686Z,35.43
2018-09-06T03:54:26.457Z,32.37
2018-09-06T03:56:55.253Z,38.17
2018-09-06T03:59:23.962Z,39.23
2018-09-06T04:01:52.621Z,35.17
2018-09-06T04:04:21.356Z,41.28
2018-09-06T04:06:50.041Z,34.65
2018-09-06T04:09:18.777Z,38.00
2018-09-06T04:11:47.504Z,40.50
2018-09-06T04:14:16.250Z,36.35
2018-09-06T04:16:45.095Z,32.93
2018-09-06T04:19:13.760Z,36.80
2018-09-06T04:21:42.422Z,36.68
2018-09-06T04:24:11.246Z,36.17
2018-09-06T04:26:39.942Z,33.50
2018-09-06T04:29:08.717Z,37.57
2018-09-06T04:31:37.372Z,37.03
2018-09-06T04:34:06.211Z,38.70
2018-09-06T04:36:34.962Z,34.10
2018-09-06T04:39:04.423Z,35.70
2018-09-06T04:41:33.162Z,37.60
2018-09-06T04:44:01.956Z,36.75
2018-09-06T04:46:30.625Z,34.30
2018-09-06T04:48:59.314Z,35.93
2018-09-06T04:51:28.005Z,36.30
2018-09-06T04:53:56.757Z,37.57
2018-09-06T04:56:25.455Z,35.83
2018-09-06T04:58:54.278Z,38.20
2018-09-06T05:01:23.022Z,34.98
2018-09-06T05:03:52.649Z,41.77
2018-09-06T05:06:21.358Z,36.17
2018-09-06T05:08:50.149Z,44.33
2018-09-06T05:11:18.953Z,37.48
2018-09-06T05:13:47.707Z,45.20
2018-09-06T05:16:16.428Z,32.40
2018-09-06T05:18:45.167Z,40.67
2018-09-06T05:21:13.875Z,40.55
2018-09-06T05:23:42.601Z,39.53
2018-09-06T05:26:11.330Z,37.10
2018-09-06T05:28:40.036Z,36.10
2018-09-06T05:31:08.817Z,38.85
2018-09-06T05:33:37.542Z,36.83
2018-09-06T05:36:06.273Z,40.57
2018-09-06T05:38:34.971Z,34.43
2018-09-06T05:41:03.711Z,45.67
2018-09-06T05:43:32.496Z,63.07
2018-09-06T05:46:01.228Z,49.57
2018-09-06T05:48:29.952Z,55.13
2018-09-06T05:50:58.746Z,38.60
2018-09-06T05:53:27.797Z,40.33
2018-09-06T05:55:56.637Z,39.87
2018-09-06T05:58:25.409Z,42.20
2018-09-06T06:00:54.159Z,45.17
2018-09-06T06:03:23.033Z,44.83
2018-09-06T06:05:51.794Z,42.43
2018-09-06T06:08:31.743Z,41.70
2018-09-06T06:11:00.501Z,40.33
2018-09-06T06:13:29.224Z,41.77
2018-09-06T06:15:58.048Z,44.80
2018-09-06T06:18:26.798Z,44.47
2018-09-06T06:20:55.617Z,40.20
2018-09-06T06:23:24.319Z,49.73
2018-09-06T06:25:53.050Z,44.20
2018-09-06T06:28:22.141Z,42.60
2018-09-06T06:30:50.808Z,45.77
2018-09-06T06:33:19.547Z,46.13
2018-09-06T06:35:48.225Z,55.77
2018-09-06T06:38:16.975Z,46.67
2018-09-06T06:40:45.659Z,55.17
2018-09-06T06:43:14.516Z,47.30
2018-09-06T06:45:43.494Z,53.67
2018-09-06T06:48:12.601Z,50.87
2018-09-06T06:50:42.269Z,51.63
2018-09-06T06:53:12.326Z,55.60
2018-09-06T06:55:41.826Z,68.10
2018-09-06T06:58:11.732Z,72.43
2018-09-06T07:00:41.845Z,69.53
2018-09-06T07:03:12.332Z,76.83
2018-09-06T07:05:41.840Z,75.57
2018-09-06T07:08:11.205Z,64.40
2018-09-06T07:10:40.245Z,70.77
2018-09-06T07:13:09.643Z,61.73
2018-09-06T07:15:48.379Z,84.83
2018-09-06T07:18:18.245Z,66.60
2018-09-06T07:20:46.993Z,84.83
2018-09-06T07:23:15.847Z,62.13
2018-09-06T07:25:44.632Z,71.47
2018-09-06T07:28:13.395Z,68.97
2018-09-06T07:30:42.179Z,79.57
2018-09-06T07:33:10.891Z,60.60
2018-09-06T07:35:41.817Z,72.23
2018-09-06T07:38:28.429Z,63.23
2018-09-06T07:40:58.253Z,57.60
2018-09-06T07:43:28.093Z,57.47
2018-09-06T07:45:56.926Z,53.93
2018-09-06T07:48:25.708Z,70.60
2018-09-06T07:50:54.453Z,50.77
2018-09-06T07:53:23.170Z,59.80
2018-09-06T07:55:51.893Z,64.77
2018-09-06T07:58:20.602Z,59.53
2018-09-06T08:00:49.325Z,55.20
2018-09-06T08:03:18.153Z,56.53
2018-09-06T08:05:46.943Z,64.97
2018-09-06T08:08:15.767Z,50.67
2018-09-06T08:10:44.468Z,48.70
2018-09-06T08:13:13.336Z,59.73
2018-09-06T08:15:42.046Z,48.23
2018-09-06T08:18:10.904Z,51.73
2018-09-06T08:20:39.781Z,42.47
2018-09-06T08:23:08.580Z,50.00
2018-09-06T08:25:37.535Z,41.97
2018-09-06T08:28:07.283Z,41.27
2018-09-06T08:30:36.313Z,45.53
2018-09-06T08:33:05.528Z,36.50
2018-09-06T08:35:34.318Z,48.13
2018-09-06T08:38:03.049Z,36.30
2018-09-06T08:40:31.839Z,41.80
2018-09-06T08:43:00.560Z,38.60
2018-09-06T08:45:29.433Z,36.80
2018-09-06T08:47:58.300Z,42.83
2018-09-06T08:50:27.132Z,39.63
2018-09-06T08:52:56.081Z,41.37
2018-09-06T08:55:25.002Z,37.00
2018-09-06T08:57:53.934Z,40.27
2018-09-06T09:00:22.702Z,38.33
2018-09-06T09:02:51.693Z,29.97
2018-09-06T09:05:20.630Z,37.27
2018-09-06T09:07:49.353Z,33.63
2018-09-06T09:10:18.288Z,48.07
2018-09-06T09:12:47.028Z,34.67
2018-09-06T09:15:15.874Z,42.43
2018-09-06T09:17:44.584Z,32.07
2018-09-06T09:20:13.345Z,30.47
2018-09-06T09:22:42.140Z,37.60
2018-09-06T09:25:10.918Z,33.23
2018-09-06T09:27:44.822Z,37.77
2018-09-06T09:30:14.178Z,33.77
2018-09-06T09:32:43.161Z,38.60
2018-09-06T09:35:12.015Z,41.60
2018-09-06T09:37:40.860Z,35.37
2018-09-06T09:40:09.664Z,31.90
2018-09-06T09:42:38.612Z,35.37
2018-09-06T09:45:07.412Z,26.80
2018-09-06T09:50:05.019Z,25.47
2018-09-06T09:52:34.893Z,26.23
2018-09-06T09:55:03.663Z,29.17
2018-09-06T09:57:32.401Z,24.50
2018-09-06T10:00:01.297Z,29.40
2018-09-06T10:02:36.701Z,25.17
2018-09-06T10:05:10.762Z,26.10
2018-09-06T10:07:45.462Z,20.80
2018-09-06T10:10:14.329Z,24.60
2018-09-06T10:12:43.242Z,21.67
2018-09-06T10:15:12.249Z,27.80
2018-09-06T10:17:41.032Z,22.47
2018-09-06T10:20:09.804Z,20.73
2018-09-06T10:22:38.961Z,15.90
2018-09-06T10:25:07.806Z,15.90
2018-09-06T10:27:36.690Z,22.60
2018-09-06T10:30:05.736Z,20.70
2018-09-06T10:32:34.571Z,20.87
2018-09-06T10:35:03.438Z,17.10
2018-09-06T10:37:32.372Z,18.67
2018-09-06T10:40:01.170Z,18.37
2018-09-06T10:42:29.886Z,17.80
2018-09-06T10:44:59.397Z,19.53
2018-09-06T10:47:28.195Z,23.50
2018-09-06T10:49:56.933Z,21.87
2018-09-06T10:52:25.697Z,25.77
2018-09-06T10:54:54.476Z,21.67
2018-09-06T10:57:23.257Z,23.67
2018-09-06T10:59:52.258Z,26.53
2018-09-06T11:02:21.164Z,22.73
2018-09-06T11:04:50.443Z,22.03
2018-09-06T11:07:19.346Z,19.90
2018-09-06T11:09:48.094Z,22.67
2018-09-06T11:12:16.888Z,25.10
2018-09-06T11:14:45.709Z,21.33
2018-09-06T11:17:14.513Z,26.87
2018-09-06T11:19:43.203Z,25.00
2018-09-06T11:22:12.618Z,19.23
2018-09-06T11:24:41.162Z,22.30
2018-09-06T11:27:09.907Z,25.90
2018-09-06T11:29:45.244Z,26.30
2018-09-06T11:32:21.690Z,22.17
2018-09-06T11:34:50.809Z,23.40
2018-09-06T11:37:19.735Z,24.10
2018-09-06T11:39:48.577Z,21.43
2018-09-06T11:42:17.689Z,22.60
2018-09-06T11:44:47.535Z,28.03
2018-09-06T11:47:16.503Z,22.17
2018-09-06T11:49:45.228Z,26.00
2018-09-06T11:52:14.017Z,23.93
2018-09-06T11:54:42.863Z,21.83
2018-09-06T11:57:11.828Z,21.43
2018-09-06T11:59:40.592Z,21.13
2018-09-06T12:02:10.058Z,23.57
2018-09-06T12:04:38.990Z,31.83
2018-09-06T12:07:07.809Z,20.07
2018-09-06T12:09:36.573Z,19.93
2018-09-06T12:12:05.417Z,20.07
2018-09-06T12:14:34.153Z,29.60
2018-09-06T12:17:03.000Z,24.50
2018-09-06T12:19:31.702Z,17.60
2018-09-06T12:22:00.587Z,25.50
2018-09-06T12:24:29.388Z,22.63
2018-09-06T12:26:58.209Z,21.63
2018-09-06T12:29:27.045Z,20.57
2018-09-06T12:31:55.991Z,20.33
2018-09-06T12:34:24.775Z,18.77
2018-09-06T12:36:53.481Z,19.57
2018-09-06T12:39:22.286Z,22.53
2018-09-06T12:41:51.179Z,20.40
2018-09-06T12:44:19.964Z,18.67
2018-09-06T12:46:48.716Z,27.00
2018-09-06T12:49:17.570Z,17.93
2018-09-06T12:51:46.400Z,17.50
2018-09-06T12:54:15.556Z,17.67
2018-09-06T12:56:45.242Z,16.10
2018-09-06T12:59:14.208Z,21.17
2018-09-06T13:01:44.465Z,18.87
2018-09-06T13:04:13.441Z,18.60
2018-09-06T13:06:42.264Z,16.93
2018-09-06T13:09:10.981Z,22.90
2018-09-06T13:11:39.922Z,19.70
2018-09-06T13:14:08.718Z,21.20
2018-09-06T13:16:37.603Z,17.43
2018-09-06T13:19:06.501Z,21.50
2018-09-06T13:21:35.312Z,16.43
2018-09-06T13:24:04.098Z,24.10
2018-09-06T13:26:32.884Z,13.60
2018-09-06T13:29:01.640Z,13.67
2018-09-06T13:31:30.589Z,12.50
2018-09-06T13:33:59.302Z,13.23
2018-09-06T13:36:28.243Z,16.10
2018-09-06T13:38:57.219Z,13.50
2018-09-06T13:41:26.021Z,24.30
2018-09-06T13:43:54.813Z,13.33
2018-09-06T13:46:23.834Z,12.80
2018-09-06T13:48:52.579Z,20.87
2018-09-06T13:51:21.513Z,15.23
2018-09-06T13:53:50.342Z,17.00
2018-09-06T13:56:19.203Z,14.07
2018-09-06T13:58:47.986Z,12.70
2018-09-06T14:01:16.903Z,13.00
2018-09-06T14:03:45.713Z,14.00
2018-09-06T14:06:14.654Z,16.03
2018-09-06T14:08:43.495Z,15.30
2018-09-06T14:11:12.370Z,14.40
2018-09-06T14:13:41.167Z,14.40
2018-09-06T14:16:10.050Z,15.60
2018-09-06T14:18:38.942Z,12.13
2018-09-06T14:21:07.782Z,12.53
2018-09-06T14:23:36.695Z,15.30
2018-09-06T14:26:05.751Z,11.53
2018-09-06T14:28:34.624Z,15.70
2018-09-06T14:31:03.749Z,15.53
2018-09-06T14:33:33.254Z,14.10
2018-09-06T14:36:02.128Z,23.33
2018-09-06T14:38:31.058Z,14.43
2018-09-06T14:40:59.777Z,17.30
2018-09-06T14:43:28.625Z,14.67
2018-09-06T14:45:57.435Z,14.47
2018-09-06T14:48:27.971Z,17.23
2018-09-06T14:50:56.789Z,16.43
2018-09-06T14:53:25.450Z,14.67
2018-09-06T14:55:54.384Z,15.30
2018-09-06T14:58:23.165Z,20.53
2018-09-06T15:00:51.959Z,14.37
2018-09-06T15:03:20.714Z,23.93
2018-09-06T15:05:49.566Z,15.73
2018-09-06T15:08:18.330Z,12.90
2018-09-06T15:10:47.355Z,17.73
2018-09-06T15:13:16.120Z,14.27
2018-09-06T15:15:44.922Z,21.20
2018-09-06T15:18:13.665Z,14.67
2018-09-06T15:20:42.332Z,12.13
2018-09-06T15:23:11.151Z,11.87
2018-09-06T15:25:40.042Z,13.17
2018-09-06T15:28:08.798Z,13.30
2018-09-06T15:30:39.764Z,17.50
2018-09-06T15:33:08.557Z,13.60
2018-09-06T15:35:38.507Z,14.07
2018-09-06T15:38:07.805Z,12.73
2018-09-06T15:40:36.561Z,12.47
2018-09-06T15:43:05.428Z,11.33
2018-09-06T15:45:34.393Z,12.97
2018-09-06T15:48:03.141Z,12.57
2018-09-06T15:50:31.930Z,17.97
2018-09-06T15:53:00.721Z,11.10
2018-09-06T15:55:29.482Z,15.50
2018-09-06T15:57:58.271Z,20.90
2018-09-06T16:00:27.136Z,21.20
2018-09-06T16:02:55.851Z,24.37
2018-09-06T16:05:24.655Z,19.67
2018-09-06T16:07:53.456Z,22.13
2018-09-06T16:10:22.157Z,21.50
2018-09-06T16:12:50.925Z,19.93
2018-09-06T16:15:19.827Z,22.13
2018-09-06T16:17:48.704Z,20.10
2018-09-06T16:20:17.487Z,19.90
2018-09-06T16:22:46.726Z,21.00
2018-09-06T16:25:15.775Z,17.20
2018-09-06T16:27:44.606Z,26.00
2018-09-06T16:30:13.525Z,15.40
2018-09-06T16:32:42.300Z,19.40
2018-09-06T16:35:11.041Z,14.37
2018-09-06T16:37:39.785Z,13.50
2018-09-06T16:40:08.531Z,17.80
2018-09-06T16:42:37.349Z,16.60
2018-09-06T16:45:06.059Z,12.80
2018-09-06T16:47:34.896Z,12.77
2018-09-06T16:50:03.707Z,9.20
2018-09-06T16:52:32.664Z,17.33
2018-09-06T16:55:01.432Z,11.37
2018-09-06T16:57:30.103Z,10.97
2018-09-06T16:59:58.913Z,18.70
2018-09-06T17:02:27.635Z,15.70
2018-09-06T17:04:56.470Z,13.50
2018-09-06T17:07:25.321Z,11.43
2018-09-06T17:09:54.142Z,12.70
2018-09-06T17:12:22.971Z,17.40
2018-09-06T17:14:51.768Z,14.63
2018-09-06T17:17:20.541Z,22.07
2018-09-06T17:19:49.283Z,16.23
2018-09-06T17:22:17.988Z,15.50
2018-09-06T17:24:46.807Z,16.67
2018-09-06T17:27:15.518Z,20.00
2018-09-06T17:29:44.210Z,19.63
2018-09-06T17:32:12.942Z,13.93
2018-09-06T17:34:41.782Z,13.70
2018-09-06T17:37:10.449Z,16.43
2018-09-06T17:39:39.191Z,16.30
2018-09-06T17:42:07.924Z,13.47
2018-09-06T17:44:36.632Z,17.03
2018-09-06T17:47:05.560Z,14.40
2018-09-06T17:49:34.329Z,20.87
2018-09-06T17:52:03.105Z,12.73
2018-09-06T17:54:31.909Z,15.30
2018-09-06T17:57:00.641Z,20.23
2018-09-06T17:59:29.369Z,18.43
2018-09-06T18:01:58.207Z,18.43
2018-09-06T18:04:27.032Z,15.53
2018-09-06T18:06:55.837Z,20.90
2018-09-06T18:09:24.624Z,17.17
2018-09-06T18:11:53.418Z,19.23
2018-09-06T18:14:22.154Z,19.13
2018-09-06T18:16:50.877Z,16.30
2018-09-06T18:19:19.670Z,16.90
2018-09-06T18:21:48.396Z,18.87
2018-09-06T18:24:17.161Z,17.33
2018-09-06T18:26:45.870Z,19.60
2018-09-06T18:29:14.661Z,42.77
2018-09-06T18:31:43.519Z,23.63
2018-09-06T18:34:12.249Z,17.80
2018-09-06T18:36:40.932Z,14.20
2018-09-06T18:39:09.681Z,26.93
2018-09-06T18:41:38.401Z,17.33
2018-09-06T18:44:07.222Z,19.00
2018-09-06T18:46:35.970Z,21.83
2018-09-06T18:49:04.702Z,20.40
2018-09-06T18:51:33.519Z,23.90
2018-09-06T18:54:02.240Z,18.40
2018-09-06T18:56:31.036Z,22.30
2018-09-06T18:58:59.777Z,20.20
2018-09-06T19:01:28.465Z,19.10
2018-09-06T19:03:57.207Z,19.07
2018-09-06T19:06:25.904Z,19.23
2018-09-06T19:08:54.726Z,22.10
2018-09-06T19:11:23.505Z,21.43
2018-09-06T19:13:52.238Z,20.63
2018-09-06T19:16:21.075Z,17.90
2018-09-06T19:18:49.884Z,16.07
2018-09-06T19:21:18.622Z,18.70
2018-09-06T19:23:47.352Z,20.30
2018-09-06T19:26:16.205Z,24.87
2018-09-06T19:28:44.942Z,20.47
2018-09-06T19:31:13.793Z,25.93
2018-09-06T19:33:42.549Z,21.80
2018-09-06T19:36:11.305Z,21.97
2018-09-06T19:38:40.728Z,19.10
2018-09-06T19:41:09.480Z,21.30
2018-09-06T19:43:38.224Z,40.70
2018-09-06T19:46:07.198Z,22.10
2018-09-06T19:48:35.877Z,27.70
2018-09-06T19:51:04.695Z,21.33
2018-09-06T19:53:33.441Z,25.20
2018-09-06T19:56:02.140Z,35.97
2018-09-06T19:58:30.856Z,23.67
2018-09-06T20:00:59.611Z,31.23
2018-09-06T20:03:32.691Z,25.30
2018-09-06T20:06:03.639Z,30.83
2018-09-06T20:08:32.309Z,29.60
2018-09-06T20:11:00.992Z,28.43
2018-09-06T20:13:29.690Z,30.30
2018-09-06T20:15:58.509Z,28.37
2018-09-06T20:18:27.291Z,28.90
2018-09-06T20:20:56.058Z,28.30
2018-09-06T20:23:24.796Z,35.73
2018-09-06T20:25:53.608Z,28.97
2018-09-06T20:28:22.354Z,35.27
2018-09-06T20:30:51.169Z,29.00
2018-09-06T20:33:19.881Z,31.10
2018-09-06T20:35:48.676Z,31.70
2018-09-06T20:38:17.434Z,33.00
2018-09-06T20:40:46.176Z,66.60
2018-09-06T20:43:15.000Z,33.60
2018-09-06T20:45:43.737Z,34.90
2018-09-06T20:48:12.602Z,33.30
2018-09-06T20:50:41.411Z,33.90
2018-09-06T20:53:10.209Z,34.23
2018-09-06T20:55:38.958Z,42.23
2018-09-06T20:58:07.719Z,36.60
2018-09-06T21:00:36.491Z,32.47
2018-09-06T21:03:05.274Z,37.63
2018-09-06T21:05:34.133Z,35.57
2018-09-06T21:08:02.857Z,37.97
2018-09-06T21:10:31.688Z,42.60
2018-09-06T21:13:00.484Z,35.10
2018-09-06T21:15:29.221Z,41.20
2018-09-06T21:17:57.949Z,34.80
2018-09-06T21:20:26.657Z,39.53
2018-09-06T21:22:55.550Z,37.67
2018-09-06T21:25:24.325Z,40.20
2018-09-06T21:27:53.029Z,35.57
2018-09-06T21:30:21.992Z,34.50
2018-09-06T21:32:50.772Z,44.60
2018-09-06T21:35:19.549Z,36.20
2018-09-06T21:37:48.346Z,39.30
2018-09-06T21:40:17.042Z,38.60
2018-09-06T21:42:45.782Z,44.93
2018-09-06T21:45:14.533Z,41.07
2018-09-06T21:47:43.352Z,39.20
2018-09-06T21:50:12.059Z,44.77
2018-09-06T21:52:40.837Z,50.87
2018-09-06T21:55:09.704Z,37.87
2018-09-06T21:57:38.457Z,42.50
2018-09-06T22:00:07.461Z,48.70
2018-09-06T22:02:41.353Z,46.37
2018-09-06T22:05:10.186Z,44.60
2018-09-06T22:07:38.867Z,48.23
2018-09-06T22:10:07.647Z,48.57
2018-09-06T22:12:36.409Z,53.90
2018-09-06T22:15:05.154Z,62.37
2018-09-06T22:17:34.127Z,52.20
2018-09-06T22:20:03.000Z,53.17
2018-09-06T22:22:31.772Z,51.00
2018-09-06T22:25:00.479Z,63.13
2018-09-06T22:27:29.215Z,58.50
2018-09-06T22:29:58.012Z,57.20
2018-09-06T22:32:26.821Z,60.43
2018-09-06T22:34:55.633Z,57.97
2018-09-06T22:37:24.454Z,62.27
2018-09-06T22:39:53.209Z,56.27
2018-09-06T22:42:21.929Z,59.23
2018-09-06T22:44:50.833Z,60.37
2018-09-06T22:47:20.278Z,60.87
2018-09-06T22:49:49.043Z,57.20
2018-09-06T22:52:17.829Z,50.80
2018-09-06T22:54:46.505Z,58.07
2018-09-06T22:57:15.304Z,57.80
2018-09-06T22:59:44.087Z,67.53
2018-09-06T23:02:12.810Z,55.17
2018-09-06T23:04:41.540Z,53.70
2018-09-06T23:07:10.368Z,50.97
2018-09-06T23:09:39.101Z,51.80
2018-09-06T23:12:07.801Z,53.03
2018-09-06T23:14:36.491Z,55.00
2018-09-06T23:17:05.251Z,51.17
2018-09-06T23:19:33.974Z,54.87
2018-09-06T23:22:02.718Z,51.83
2018-09-06T23:24:31.434Z,52.20
2018-09-06T23:27:00.257Z,60.23
2018-09-06T23:29:29.032Z,52.70
2018-09-06T23:31:57.735Z,46.43
2018-09-06T23:34:30.356Z,65.73
2018-09-06T23:36:59.085Z,50.30
2018-09-06T23:39:27.805Z,56.03
2018-09-06T23:41:56.502Z,51.80
2018-09-06T23:44:25.270Z,53.03
2018-09-06T23:46:54.026Z,52.10
2018-09-06T23:49:22.809Z,50.83
2018-09-06T23:51:51.630Z,53.83
2018-09-06T23:54:20.426Z,52.33
2018-09-06T23:56:49.208Z,57.93
2018-09-06T23:59:17.890Z,61.33
